Latest Weather Observations for Broken Hill Airport

IDN60801

Issued at 10:33 pm EDT Friday 16 November 2018 (issued every 10 minutes, with the page automatically refreshed every 10 minutes)

About weather observations | Map of weather stations | Latest weather observations for NSW | Other Formats
Station Details ID: 047048 Name: BROKEN HILL AIRPORT AWS Lat: -32.00 Lon: 141.47 Height: 281.3 m
Data from the previous 72 hours. | See also: Recent months at Broken Hill Airport
Date/Time
EDT
Temp
°C
App
Temp
°C
Dew
Point
°C
Rel
Hum
%
Delta-T
°C
Wind Press
QNH
hPa
Press
MSL
hPa
Rain since
9am
mm
Dir  Spd
km/h
Gust
km/h
Spd
kts
Gust
kts
16/10:30pm 22.2 17.9 1.3 25 9.8 SSE 13 19 7 10 1018.9 1017.8 0.0
16/10:00pm 22.1 18.2 1.2 25 9.7 SSE 11 15 6 8 1018.4 1017.3 0.0
16/09:30pm 22.9 19.3 0.7 23 10.3 SSE 9 11 5 6 1017.9 1016.8 0.0
16/09:00pm 24.3 20.4 -1.5 18 11.6 S 9 11 5 6 1017.6 1016.5 0.0
16/08:30pm 25.4 21.0 -2.2 16 12.4 S 11 17 6 9 1017.4 1016.3 0.0
16/08:00pm 26.9 21.2 -3.8 13 13.5 SSW 17 22 9 12 1017.1 1016.0 0.0
16/07:30pm 27.7 21.4 -4.3 12 14.1 SSW 20 26 11 14 1016.9 1015.8 0.0
16/07:00pm 28.2 22.5 -3.9 12 14.3 SSW 17 20 9 11 1016.7 1015.6 0.0
16/06:30pm 28.8 23.5 -3.4 12 14.5 SSW 15 24 8 13 1016.6 1015.5 0.0
16/06:00pm 28.5 23.2 -3.6 12 14.4 SSW 15 26 8 14 1016.7 1015.6 0.0
16/05:30pm 28.6 22.0 -3.6 12 14.5 SSW 22 35 12 19 1016.7 1015.6 0.0
16/05:00pm 27.9 21.7 -3.0 13 13.9 S 20 30 11 16 1016.7 1015.6 0.0
16/04:30pm 28.4 21.9 -2.6 13 14.2 SSW 22 37 12 20 1016.9 1015.8 0.0
16/04:00pm 28.5 22.6 -2.6 13 14.2 SSW 19 32 10 17 1017.1 1016.0 0.0
16/03:30pm 27.9 22.4 -2.0 14 13.7 SW 17 35 9 19 1017.7 1016.6 0.0
16/03:00pm 28.0 21.9 -2.0 14 13.8 S 20 41 11 22 1018.2 1017.1 0.0
16/02:30pm 27.5 20.9 -3.3 13 13.8 SW 22 43 12 23 1018.5 1017.4 0.0
16/02:00pm 27.1 21.0 -3.7 13 13.6 SSW 19 30 10 16 1018.9 1017.8 0.0
16/01:30pm 27.0 21.4 -2.7 14 13.4 SSW 17 26 9 14 1019.5 1018.4 0.0
16/01:00pm 26.6 21.7 -0.4 17 12.6 SSW 15 22 8 12 1019.8 1018.7 0.0
16/12:30pm 25.5 21.2 -1.3 17 12.2 SSW 11 22 6 12 1020.1 1019.0 0.0
16/12:00pm 24.5 20.9 0.8 21 11.1 SSW 9 17 5 9 1020.4 1019.3 0.0
16/11:30am 24.2 21.4 2.9 25 10.4 SSE 7 11 4 6 1020.8 1019.7 0.0
16/11:00am 22.7 19.3 1.7 25 9.9 SSE 9 13 5 7 1020.8 1019.7 0.0
16/10:30am 21.9 18.2 2.1 27 9.4 SSE 11 19 6 10 1020.7 1019.6 0.0
16/10:00am 20.4 16.2 1.8 29 8.6 S 13 17 7 9 1020.7 1019.6 0.0
16/09:30am 19.2 14.6 1.7 31 8.0 S 15 20 8 11 1020.8 1019.7 0.0
16/09:00am 18.1 13.8 1.2 32 7.6 SSW 13 17 7 9 1020.7 1019.6 0.0
16/08:30am 16.9 12.5 0.5 33 7.2 SSW 13 15 7 8 1020.6 1019.5 0.0
16/08:00am 15.9 11.7 1.6 38 6.4 SSW 13 15 7 8 1020.4 1019.3 0.0
16/07:30am 14.7 11.4 2.3 43 5.6 SW 9 13 5 7 1020.1 1019.0 0.0
16/07:00am 13.3 9.8 3.4 51 4.5 SW 11 13 6 7 1020.0 1018.9 0.0
16/06:30am 13.3 10.1 2.8 49 4.7 WSW 9 9 5 5 1019.5 1018.4 0.0
16/06:00am 14.3 11.5 1.9 43 5.5 S 6 7 3 4 1019.3 1018.2 0.0
16/05:30am 14.7 11.3 1.9 42 5.7 SSE 9 11 5 6 1019.0 1017.9 0.0
16/05:00am 15.5 13.7 1.3 38 6.3 CALM 0 7 0 4 1018.9 1017.8 0.0
16/04:30am 15.2 13.6 2.4 42 5.8 CALM 0 0 0 0 1018.8 1017.7 0.0
16/04:00am 15.9 12.9 2.3 40 6.2 S 7 7 4 4 1018.9 1017.8 0.0
16/03:30am 15.8 13.1 2.6 41 6.0 SSW 6 11 3 6 1019.0 1017.9 0.0
16/03:00am 16.0 13.4 3.4 43 5.8 S 6 7 3 4 1019.4 1018.3 0.0
16/02:30am 16.4 13.3 3.8 43 5.9 S 9 13 5 7 1019.6 1018.5 0.0
16/02:00am 17.2 14.3 2.8 38 6.7 SSE 7 9 4 5 1020.0 1018.9 0.0
16/01:30am 17.9 13.9 3.0 37 7.0 SE 13 13 7 7 1020.3 1019.2 0.0
16/01:00am 18.4 14.8 2.7 35 7.3 SSE 11 13 6 7 1020.6 1019.5 0.0
16/12:30am 19.1 15.0 2.5 33 7.7 SSE 13 17 7 9 1020.7 1019.6 0.0
16/12:00am 19.7 15.2 2.1 31 8.2 SSE 15 17 8 9 1020.8 1019.7 0.0
 
Date/Time
EDT
Temp
°C
App
Temp
°C
Dew
Point
°C
Rel
Hum
%
Delta-T
°C
Wind Press
QNH
hPa
Press
MSL
hPa
Rain since
9am
mm
Dir  Spd
km/h
Gust
km/h
Spd
kts
Gust
kts
15/11:30pm 19.9 15.4 2.3 31 8.3 SSE 15 17 8 9 1020.9 1019.8 0.0
15/11:00pm 20.5 16.1 2.8 31 8.4 SE 15 17 8 9 1021.1 1020.0 0.0
15/10:30pm 21.2 16.4 2.5 29 8.9 SSE 17 20 9 11 1021.2 1020.1 0.0
15/10:00pm 21.9 16.9 3.6 30 8.9 SSE 19 24 10 13 1021.0 1019.9 0.0
15/09:30pm 22.3 18.3 4.8 32 8.7 SSE 15 20 8 11 1020.6 1019.5 0.0
15/09:00pm 23.1 18.8 5.1 31 9.1 S 17 22 9 12 1020.2 1019.1 0.0
15/08:30pm 23.6 19.6 5.0 30 9.4 S 15 19 8 10 1020.1 1019.0 0.0
15/08:00pm 24.3 19.5 4.6 28 9.9 SSW 19 24 10 13 1019.9 1018.8 0.0
15/07:30pm 25.0 19.6 4.7 27 10.3 S 22 30 12 16 1019.7 1018.6 0.0
15/07:00pm 25.3 20.7 5.5 28 10.2 SSW 19 26 10 14 1019.4 1018.3 0.0
15/06:30pm 25.7 21.1 6.3 29 10.2 SSW 20 30 11 16 1019.3 1018.2 0.0
15/06:00pm 26.0 20.9 6.1 28 10.4 S 22 33 12 18 1019.1 1018.1 0.0
15/05:30pm 26.1 21.8 7.2 30 10.1 SSW 19 26 10 14 1019.1 1018.1 0.0
15/05:00pm 25.3 20.7 6.5 30 9.9 S 20 30 11 16 1019.4 1018.3 0.0
15/04:30pm 25.8 22.1 7.9 32 9.7 SSW 17 24 9 13 1019.5 1018.4 0.0
15/04:00pm 25.3 21.0 7.0 31 9.7 S 19 32 10 17 1019.7 1018.6 0.0
15/03:30pm 24.9 20.3 6.6 31 9.6 SSW 20 32 11 17 1020.0 1018.9 0.0
15/03:00pm 24.8 21.3 7.4 33 9.3 S 15 28 8 15 1020.4 1019.3 0.0
15/02:30pm 25.1 21.6 7.3 32 9.5 SSE 15 30 8 16 1020.7 1019.6 0.0
15/02:00pm 23.3 19.8 7.4 36 8.4 S 15 28 8 15 1021.0 1019.9 0.0
15/01:30pm 23.3 18.9 7.4 36 8.4 SSE 20 30 11 16 1021.3 1020.2 0.0
15/01:00pm 22.1 17.9 7.5 39 7.7 SE 19 30 10 16 1021.6 1020.5 0.0
15/12:30pm 21.3 17.0 7.2 40 7.3 S 19 26 10 14 1021.9 1020.8 0.0
15/12:00pm 20.7 16.3 7.3 42 6.9 SSE 20 30 11 16 1022.2 1021.1 0.0
15/11:30am 19.9 15.2 7.6 45 6.4 SSE 22 32 12 17 1022.5 1021.5 0.0
15/11:00am 18.8 13.1 6.9 46 6.0 SSE 26 35 14 19 1022.8 1021.8 0.0
15/10:30am 18.3 12.8 7.7 50 5.5 SSE 26 37 14 20 1023.0 1021.9 0.0
15/10:00am 17.6 11.8 7.9 53 5.0 SSE 28 35 15 19 1023.0 1021.9 0.0
15/09:30am 16.9 11.1 8.1 56 4.5 SSE 28 41 15 22 1022.8 1021.8 0.0
15/09:00am 16.3 10.2 8.3 59 4.1 SSE 30 37 16 20 1022.4 1021.4 0.0
15/08:30am 15.5 9.3 8.0 61 3.8 S 30 35 16 19 1021.9 1020.8 0.0
15/08:00am 15.1 9.1 8.6 65 3.3 S 30 39 16 21 1021.7 1020.6 0.0
15/07:30am 14.9 9.6 8.4 65 3.3 S 26 32 14 17 1021.4 1020.3 0.0
15/07:00am 14.3 10.4 8.7 69 2.9 S 19 26 10 14 1021.1 1020.0 0.0
15/06:30am 14.0 10.5 8.8 71 2.7 SSW 17 20 9 11 1020.6 1019.5 0.0
15/06:00am 14.5 10.7 8.9 69 2.9 SSW 19 24 10 13 1020.2 1019.1 0.0
15/05:30am 15.0 10.5 8.5 65 3.3 S 22 30 12 16 1019.8 1018.7 0.0
15/05:00am 15.4 9.7 8.4 63 3.6 S 28 35 15 19 1019.7 1018.6 0.0
15/04:30am 15.8 10.5 8.5 62 3.8 S 26 32 14 17 1019.6 1018.5 0.0
15/04:00am 16.3 11.4 8.3 59 4.1 SSW 24 30 13 16 1019.4 1018.3 0.0
15/03:30am 17.0 12.5 8.4 57 4.4 S 22 30 12 16 1019.1 1018.1 0.0
15/03:00am 17.6 13.5 8.7 56 4.6 SSW 20 28 11 15 1018.9 1017.8 0.0
15/02:30am 18.3 13.5 8.8 54 5.0 S 24 30 13 16 1018.8 1017.7 0.0
15/02:00am 18.8 13.6 8.7 52 5.3 S 26 33 14 18 1018.8 1017.7 0.0
15/01:30am 19.4 15.1 9.3 52 5.4 S 22 30 12 16 1018.9 1017.8 0.0
15/01:00am 19.8 16.5 9.4 51 5.6 SSE 17 20 9 11 1018.9 1017.8 0.0
15/12:30am 20.5 17.2 9.7 50 5.8 SSE 17 22 9 12 1018.7 1017.6 0.0
15/12:00am 21.0 17.7 9.6 48 6.2 SSE 17 20 9 11 1018.7 1017.6 0.0
 
Date/Time
EDT
Temp
°C
App
Temp
°C
Dew
Point
°C
Rel
Hum
%
Delta-T
°C
Wind Press
QNH
hPa
Press
MSL
hPa
Rain since
9am
mm
Dir  Spd
km/h
Gust
km/h
Spd
kts
Gust
kts
14/11:30pm 21.0 18.7 10.5 51 5.8 SSE 13 15 7 8 1018.4 1017.3 0.0
14/11:00pm 21.7 18.5 9.9 47 6.5 S 17 20 9 11 1018.1 1017.0 0.0
14/10:30pm 21.3 20.1 11.6 54 5.5 SSW 9 13 5 7 1017.7 1016.6 0.0
14/10:00pm 22.0 21.5 12.5 54 5.5 SW 7 11 4 6 1017.3 1016.2 0.0
14/09:30pm 23.1 22.1 12.4 51 6.2 S 9 11 5 6 1016.9 1015.8 0.0
14/09:00pm 23.2 23.4 14.2 57 5.3 S 6 9 3 5 1016.6 1015.5 0.0
14/08:30pm 24.2 22.8 12.2 47 6.9 S 11 17 6 9 1016.4 1015.3 0.0
14/08:00pm 25.2 22.4 11.4 42 7.9 S 17 20 9 11 1016.1 1015.0 0.0
14/07:30pm 25.9 22.8 11.6 40 8.2 SSW 19 24 10 13 1015.8 1014.6 0.0
14/07:00pm 26.3 23.3 12.0 41 8.3 SSW 19 24 10 13 1015.7 1014.5 0.0
14/06:30pm 26.6 23.9 13.0 43 8.0 SW 19 26 10 14 1015.3 1014.2 0.0
14/06:00pm 26.3 24.5 13.4 45 7.7 SW 15 20 8 11 1015.3 1014.2 0.0
14/05:30pm 25.9 23.3 13.7 47 7.3 SSW 20 32 11 17 1015.3 1014.2 0.0
14/05:00pm 25.8 24.4 14.6 50 6.8 S 15 26 8 14 1015.2 1014.1 0.0
14/04:30pm 25.3 24.1 15.0 53 6.3 SSE 15 20 8 11 1015.6 1014.4 0.0
14/04:00pm 24.7 23.7 15.6 57 5.6 SSW 15 24 8 13 1015.8 1014.6 0.0
14/03:30pm 24.2 24.5 15.9 59 5.1 S 9 17 5 9 1015.8 1014.6 0.0
14/03:00pm 24.8 25.8 17.8 65 4.4 SE 9 17 5 9 1016.1 1015.0 0.0
14/02:30pm 22.7 23.0 16.0 66 4.1 SE 9 15 5 8 1016.2 1015.1 0.0
14/02:00pm 22.1 22.8 17.0 73 3.2 SSW 9 17 5 9 1016.6 1015.5 0.0
14/01:31pm 20.7 20.3 15.3 71 3.2 SSE 11 17 6 9 1017.0 1015.9 0.0
14/01:30pm 20.8 20.5 15.4 71 3.2 SSE 11 17 6 9 1017.0 1015.9 0.0
14/01:00pm 20.5 19.3 16.1 76 2.7 SSW 17 22 9 12 1017.3 1016.2 0.0
14/12:30pm 19.3 18.5 16.0 81 2.0 S 15 20 8 11 1017.5 1016.4 0.0
14/12:00pm 18.4 17.1 15.8 85 1.6 SSW 17 24 9 13 1017.7 1016.6 0.0
14/11:30am 18.0 16.4 16.0 88 1.2 SSW 19 22 10 12 1017.5 1016.4 0.0
14/11:00am 17.5 15.8 15.7 89 1.1 S 19 24 10 13 1017.2 1016.1 0.0
14/10:30am 16.8 14.7 15.2 90 0.9 SSW 20 28 11 15 1017.2 1016.1 0.0
14/10:00am 16.9 14.8 15.1 89 1.1 SSW 20 26 11 14 1017.0 1015.9 0.0
14/09:30am 16.8 14.9 15.3 91 0.9 SSW 19 24 10 13 1016.7 1015.6 11.8
14/09:00am 16.7 14.9 15.4 92 0.8 S 19 24 10 13 1016.3 1015.2 11.8
14/08:30am 16.1 13.9 15.0 93 0.6 S 20 24 11 13 1015.9 1014.7 11.8
14/08:00am 16.2 13.1 14.6 90 0.9 SSW 24 28 13 15 1015.3 1014.2 11.8
14/07:42am 16.5 14.1 14.5 88 1.2 SSW 20 26 11 14 1015.0 1013.9 11.8
14/07:30am 16.6 14.8 14.4 87 1.3 SSW 17 22 9 12 1014.8 1013.7 11.8
14/07:17am 16.6 14.2 14.4 87 1.3 SSW 20 24 11 13 1014.7 1013.6 11.8
14/07:00am 17.0 15.1 15.3 90 1.0 SSW 19 26 10 14 1014.4 1013.3 11.8
14/06:45am 17.5 15.9 16.0 91 0.9 SW 19 30 10 16 1014.1 1013.0 11.8
14/06:30am 17.1 16.1 15.6 91 0.9 SW 15 17 8 9 1013.9 1012.8 11.8
14/06:00am 17.2 16.1 15.4 89 1.1 SW 15 17 8 9 1013.5 1012.4 11.8
14/05:30am 17.3 16.6 15.3 88 1.2 SW 13 17 7 9 1013.1 1012.0 11.8
14/05:00am 19.2 19.2 15.1 77 2.4 NW 9 11 5 6 1012.7 1011.5 11.8
14/04:30am 19.9 19.2 15.3 75 2.7 NW 13 17 7 9 1012.4 1011.2 11.8
14/04:00am 19.7 19.3 15.1 75 2.7 NW 11 15 6 8 1012.4 1011.2 11.6
14/03:30am 19.9 18.6 14.9 73 3.0 NW 15 19 8 10 1012.4 1011.2 11.6
14/03:00am 19.5 17.9 15.0 75 2.7 NNW 17 20 9 11 1012.5 1011.3 11.6
14/02:30am 18.8 18.0 15.1 79 2.2 NNW 13 17 7 9 1012.8 1011.6 11.6
14/02:00am 18.2 18.3 15.5 84 1.6 N 9 11 5 6 1013.2 1012.1 11.4
14/01:30am 18.3 17.4 14.8 80 2.1 NNE 13 19 7 10 1013.5 1012.4 11.2
14/01:00am 18.6 16.6 13.9 74 2.7 N 17 24 9 13 1013.5 1012.4 11.0
14/12:30am 18.3 16.7 14.0 76 2.5 N 15 24 8 13 1013.4 1012.3 10.8
14/12:00am 18.4 15.9 14.1 76 2.5 N 20 30 11 16 1013.2 1012.1 10.6
 
Date/Time
EDT
Temp
°C
App
Temp
°C
Dew
Point
°C
Rel
Hum
%
Delta-T
°C
Wind Press
QNH
hPa
Press
MSL
hPa
Rain since
9am
mm
Dir  Spd
km/h
Gust
km/h
Spd
kts
Gust
kts
13/11:30pm 18.5 15.2 15.0 80 2.1 N 26 33 14 18 1013.3 1012.2 10.4

Other Formats:

Comma delimited format used in spreadsheet applications
http://www.bom.gov.au/fwo/IDN60801/IDN60801.94691.axf

JavaScript Object Notation format (JSON) in row-major order
http://www.bom.gov.au/fwo/IDN60801/IDN60801.94691.json